sensor_id;sensor_type;location;lat;lon;timestamp;P1;durP1;ratioP1;P2;durP2;ratioP2
6902;SDS011;20232;49.408;8.702;2024-01-15T05:01:49;21.17;;;10.53;;
6902;SDS011;20232;49.408;8.702;2024-01-15T05:04:15;24.43;;;10.57;;
6902;SDS011;20232;49.408;8.702;2024-01-15T05:06:40;22.90;;;10.70;;
6902;SDS011;20232;49.408;8.702;2024-01-15T05:09:05;20.50;;;10.83;;
6902;SDS011;20232;49.408;8.702;2024-01-15T05:11:32;21.43;;;10.50;;
6902;SDS011;20232;49.408;8.702;2024-01-15T05:13:57;23.13;;;10.83;;
6902;SDS011;20232;49.408;8.702;2024-01-15T05:16:22;19.43;;;10.10;;
6902;SDS011;20232;49.408;8.702;2024-01-15T05:18:48;23.10;;;11.53;;
6902;SDS011;20232;49.408;8.702;2024-01-15T05:21:13;22.93;;;10.17;;
6902;SDS011;20232;49.408;8.702;2024-01-15T05:23:39;20.60;;;10.00;;
6902;SDS011;20232;49.408;8.702;2024-01-15T05:26:04;22.77;;;10.83;;
6902;SDS011;20232;49.408;8.702;2024-01-15T05:28:29;22.07;;;10.80;;
6902;SDS011;20232;49.408;8.702;2024-01-15T05:30:55;21.63;;;11.13;;
6902;SDS011;20232;49.408;8.702;2024-01-15T05:33:21;25.63;;;11.63;;
6902;SDS011;20232;49.408;8.702;2024-01-15T05:35:47;25.67;;;11.13;;
6902;SDS011;20232;49.408;8.702;2024-01-15T05:38:12;22.50;;;10.77;;
6902;SDS011;20232;49.408;8.702;2024-01-15T05:40:38;22.30;;;11.40;;
6902;SDS011;20232;49.408;8.702;2024-01-15T05:43:03;23.37;;;11.07;;
6902;SDS011;20232;49.408;8.702;2024-01-15T05:45:29;23.03;;;11.33;;
6902;SDS011;20232;49.408;8.702;2024-01-15T05:47:55;22.33;;;11.97;;
6902;SDS011;20232;49.408;8.702;2024-01-15T05:50:21;24.57;;;11.83;;
6902;SDS011;20232;49.408;8.702;2024-01-15T05:52:47;22.80;;;11.30;;
6902;SDS011;20232;49.408;8.702;2024-01-15T05:55:12;23.60;;;11.53;;
6902;SDS011;20232;49.408;8.702;2024-01-15T05:57:38;32.10;;;13.03;;
6902;SDS011;20232;49.408;8.702;2024-01-15T06:00:03;21.60;;;10.87;;
6902;SDS011;20232;49.408;8.702;2024-01-15T06:02:31;22.23;;;11.17;;
6902;SDS011;20232;49.408;8.702;2024-01-15T06:04:56;24.30;;;12.00;;
6902;SDS011;20232;49.408;8.702;2024-01-15T06:07:22;25.50;;;11.67;;
6902;SDS011;20232;49.408;8.702;2024-01-15T06:09:48;21.93;;;10.97;;
6902;SDS011;20232;49.408;8.702;2024-01-15T06:12:13;25.37;;;12.13;;
6902;SDS011;20232;49.408;8.702;2024-01-15T06:14:38;25.37;;;11.37;;
6902;SDS011;20232;49.408;8.702;2024-01-15T06:17:04;22.57;;;11.07;;
6902;SDS011;20232;49.408;8.702;2024-01-15T06:19:29;23.93;;;11.63;;
6902;SDS011;20232;49.408;8.702;2024-01-15T06:21:55;24.57;;;11.80;;
6902;SDS011;20232;49.408;8.702;2024-01-15T06:24:20;20.70;;;10.73;;
6902;SDS011;20232;49.408;8.702;2024-01-15T06:26:48;26.13;;;12.13;;
6902;SDS011;20232;49.408;8.702;2024-01-15T06:29:14;21.33;;;11.00;;
6902;SDS011;20232;49.408;8.702;2024-01-15T06:31:39;22.03;;;11.53;;
6902;SDS011;20232;49.408;8.702;2024-01-15T06:34:04;26.17;;;11.40;;
6902;SDS011;20232;49.408;8.702;2024-01-15T06:36:30;24.67;;;11.70;;
6902;SDS011;20232;49.408;8.702;2024-01-15T06:38:55;23.33;;;12.33;;
6902;SDS011;20232;49.408;8.702;2024-01-15T06:41:21;25.00;;;11.00;;
6902;SDS011;20232;49.408;8.702;2024-01-15T06:43:46;27.63;;;12.73;;
6902;SDS011;20232;49.408;8.702;2024-01-15T06:46:11;26.00;;;11.77;;
6902;SDS011;20232;49.408;8.702;2024-01-15T06:48:37;20.27;;;10.93;;
6902;SDS011;20232;49.408;8.702;2024-01-15T06:51:02;27.73;;;12.97;;
6902;SDS011;20232;49.408;8.702;2024-01-15T06:53:28;26.53;;;11.83;;
6902;SDS011;20232;49.408;8.702;2024-01-15T06:55:53;27.77;;;13.13;;
6902;SDS011;20232;49.408;8.702;2024-01-15T06:58:18;24.83;;;12.17;;
6902;SDS011;20232;49.408;8.702;2024-01-15T07:00:44;26.27;;;12.47;;
6902;SDS011;20232;49.408;8.702;2024-01-15T07:03:09;22.97;;;12.40;;
6902;SDS011;20232;49.408;8.702;2024-01-15T07:05:34;24.03;;;11.67;;
6902;SDS011;20232;49.408;8.702;2024-01-15T07:08:02;22.57;;;12.00;;
6902;SDS011;20232;49.408;8.702;2024-01-15T07:10:27;25.10;;;11.87;;
6902;SDS011;20232;49.408;8.702;2024-01-15T07:12:53;24.03;;;11.37;;
6902;SDS011;20232;49.408;8.702;2024-01-15T07:15:18;25.10;;;12.00;;
6902;SDS011;20232;49.408;8.702;2024-01-15T07:17:44;23.43;;;11.67;;
6902;SDS011;20232;49.408;8.702;2024-01-15T07:20:09;24.70;;;11.97;;
6902;SDS011;20232;49.408;8.702;2024-01-15T07:22:35;24.17;;;11.80;;
6902;SDS011;20232;49.408;8.702;2024-01-15T07:25:01;22.87;;;12.17;;
6902;SDS011;20232;49.408;8.702;2024-01-15T07:27:26;23.27;;;12.40;;
6902;SDS011;20232;49.408;8.702;2024-01-15T07:29:52;23.43;;;11.47;;
6902;SDS011;20232;49.408;8.702;2024-01-15T07:32:17;20.87;;;11.50;;
6902;SDS011;20232;49.408;8.702;2024-01-15T07:34:42;25.27;;;12.23;;
6902;SDS011;20232;49.408;8.702;2024-01-15T07:37:08;21.87;;;11.33;;
6902;SDS011;20232;49.408;8.702;2024-01-15T07:39:33;22.30;;;11.73;;
6902;SDS011;20232;49.408;8.702;2024-01-15T07:41:59;23.17;;;11.80;;
6902;SDS011;20232;49.408;8.702;2024-01-15T07:44:25;25.67;;;13.17;;
6902;SDS011;20232;49.408;8.702;2024-01-15T07:46:51;22.97;;;11.77;;
6902;SDS011;20232;49.408;8.702;2024-01-15T07:49:16;24.47;;;12.37;;
6902;SDS011;20232;49.408;8.702;2024-01-15T07:51:41;21.27;;;11.57;;
6902;SDS011;20232;49.408;8.702;2024-01-15T07:54:08;23.50;;;11.23;;
6902;SDS011;20232;49.408;8.702;2024-01-15T07:56:34;28.37;;;12.67;;
6902;SDS011;20232;49.408;8.702;2024-01-15T07:59:18;23.33;;;11.73;;
6902;SDS011;20232;49.408;8.702;2024-01-15T08:01:43;21.93;;;11.50;;
6902;SDS011;20232;49.408;8.702;2024-01-15T08:04:08;24.50;;;12.23;;
6902;SDS011;20232;49.408;8.702;2024-01-15T08:06:38;24.87;;;12.67;;
6902;SDS011;20232;49.408;8.702;2024-01-15T08:09:04;24.37;;;12.60;;
6902;SDS011;20232;49.408;8.702;2024-01-15T08:11:29;23.17;;;12.77;;
6902;SDS011;20232;49.408;8.702;2024-01-15T08:13:55;23.37;;;12.20;;
6902;SDS011;20232;49.408;8.702;2024-01-15T08:16:20;23.47;;;12.87;;
6902;SDS011;20232;49.408;8.702;2024-01-15T08:18:46;26.47;;;13.30;;
6902;SDS011;20232;49.408;8.702;2024-01-15T08:21:12;22.63;;;11.80;;
6902;SDS011;20232;49.408;8.702;2024-01-15T08:23:38;27.33;;;14.23;;
6902;SDS011;20232;49.408;8.702;2024-01-15T08:26:04;23.83;;;11.97;;
6902;SDS011;20232;49.408;8.702;2024-01-15T08:28:29;25.23;;;12.70;;
6902;SDS011;20232;49.408;8.702;2024-01-15T08:30:55;23.20;;;12.90;;
6902;SDS011;20232;49.408;8.702;2024-01-15T08:33:21;28.83;;;13.67;;
6902;SDS011;20232;49.408;8.702;2024-01-15T08:35:46;23.67;;;12.33;;
6902;SDS011;20232;49.408;8.702;2024-01-15T08:38:12;22.80;;;12.27;;
6902;SDS011;20232;49.408;8.702;2024-01-15T08:40:37;24.63;;;11.77;;
6902;SDS011;20232;49.408;8.702;2024-01-15T08:43:02;24.03;;;12.20;;
6902;SDS011;20232;49.408;8.702;2024-01-15T08:45:28;22.90;;;11.97;;
6902;SDS011;20232;49.408;8.702;2024-01-15T08:47:53;22.63;;;12.30;;
6902;SDS011;20232;49.408;8.702;2024-01-15T08:50:19;24.73;;;12.63;;
6902;SDS011;20232;49.408;8.702;2024-01-15T08:52:44;23.40;;;13.10;;
6902;SDS011;20232;49.408;8.702;2024-01-15T08:55:09;24.87;;;12.43;;
6902;SDS011;20232;49.408;8.702;2024-01-15T08:57:35;23.90;;;12.63;;
6902;SDS011;20232;49.408;8.702;2024-01-15T09:00:00;24.30;;;12.57;;
6902;SDS011;20232;49.408;8.702;2024-01-15T09:02:25;23.57;;;12.17;;
6902;SDS011;20232;49.408;8.702;2024-01-15T09:04:51;21.27;;;11.77;;
6902;SDS011;20232;49.408;8.702;2024-01-15T09:07:16;17.97;;;11.40;;
6902;SDS011;20232;49.408;8.702;2024-01-15T09:09:42;21.93;;;11.33;;
6902;SDS011;20232;49.408;8.702;2024-01-15T09:12:08;22.63;;;12.07;;
6902;SDS011;20232;49.408;8.702;2024-01-15T09:14:33;22.43;;;12.17;;
6902;SDS011;20232;49.408;8.702;2024-01-15T09:16:59;27.13;;;11.63;;
6902;SDS011;20232;49.408;8.702;2024-01-15T09:19:24;21.97;;;11.67;;
6902;SDS011;20232;49.408;8.702;2024-01-15T09:21:50;26.37;;;12.80;;
6902;SDS011;20232;49.408;8.702;2024-01-15T09:24:15;19.53;;;11.60;;
6902;SDS011;20232;49.408;8.702;2024-01-15T09:26:40;27.00;;;12.87;;
6902;SDS011;20232;49.408;8.702;2024-01-15T09:29:06;24.37;;;12.67;;
6902;SDS011;20232;49.408;8.702;2024-01-15T09:31:31;21.87;;;11.43;;
6902;SDS011;20232;49.408;8.702;2024-01-15T09:33:57;22.47;;;11.90;;
6902;SDS011;20232;49.408;8.702;2024-01-15T09:36:24;21.70;;;11.40;;
6902;SDS011;20232;49.408;8.702;2024-01-15T09:38:50;22.67;;;10.77;;
6902;SDS011;20232;49.408;8.702;2024-01-15T09:41:16;21.37;;;12.03;;
6902;SDS011;20232;49.408;8.702;2024-01-15T09:43:41;21.33;;;11.20;;
6902;SDS011;20232;49.408;8.702;2024-01-15T09:46:07;18.80;;;10.90;;
6902;SDS011;20232;49.408;8.702;2024-01-15T09:48:33;22.23;;;12.17;;
6902;SDS011;20232;49.408;8.702;2024-01-15T09:51:00;20.23;;;10.97;;
6902;SDS011;20232;49.408;8.702;2024-01-15T09:53:26;26.57;;;12.80;;
6902;SDS011;20232;49.408;8.702;2024-01-15T09:55:52;22.43;;;12.10;;
6902;SDS011;20232;49.408;8.702;2024-01-15T09:58:18;26.07;;;11.73;;
6902;SDS011;20232;49.408;8.702;2024-01-15T10:00:44;18.27;;;11.40;;
6902;SDS011;20232;49.408;8.702;2024-01-15T10:03:09;24.00;;;11.50;;
6902;SDS011;20232;49.408;8.702;2024-01-15T10:05:36;23.23;;;12.80;;
6902;SDS011;20232;49.408;8.702;2024-01-15T10:08:02;23.33;;;11.57;;
6902;SDS011;20232;49.408;8.702;2024-01-15T10:10:28;24.10;;;11.80;;
6902;SDS011;20232;49.408;8.702;2024-01-15T10:12:54;26.53;;;12.77;;
6902;SDS011;20232;49.408;8.702;2024-01-15T10:15:23;23.00;;;11.93;;
6902;SDS011;20232;49.408;8.702;2024-01-15T10:17:49;26.50;;;12.83;;
6902;SDS011;20232;49.408;8.702;2024-01-15T10:20:15;24.80;;;12.37;;
6902;SDS011;20232;49.408;8.702;2024-01-15T10:22:41;26.43;;;13.30;;
6902;SDS011;20232;49.408;8.702;2024-01-15T10:25:09;28.57;;;13.13;;
6902;SDS011;20232;49.408;8.702;2024-01-15T10:27:35;26.03;;;13.50;;
6902;SDS011;20232;49.408;8.702;2024-01-15T10:30:01;23.20;;;12.10;;
6902;SDS011;20232;49.408;8.702;2024-01-15T10:32:28;24.90;;;12.63;;
6902;SDS011;20232;49.408;8.702;2024-01-15T10:34:54;26.77;;;12.53;;
6902;SDS011;20232;49.408;8.702;2024-01-15T10:37:19;23.53;;;12.27;;
6902;SDS011;20232;49.408;8.702;2024-01-15T10:39:46;21.20;;;11.57;;
6902;SDS011;20232;49.408;8.702;2024-01-15T10:42:11;23.77;;;12.80;;
6902;SDS011;20232;49.408;8.702;2024-01-15T10:44:37;24.40;;;12.37;;
6902;SDS011;20232;49.408;8.702;2024-01-15T10:47:02;23.83;;;12.70;;
6902;SDS011;20232;49.408;8.702;2024-01-15T10:49:28;27.63;;;13.97;;
6902;SDS011;20232;49.408;8.702;2024-01-15T10:51:55;31.13;;;13.93;;
6902;SDS011;20232;49.408;8.702;2024-01-15T10:54:21;25.07;;;13.73;;
6902;SDS011;20232;49.408;8.702;2024-01-15T10:56:51;24.83;;;12.77;;
6902;SDS011;20232;49.408;8.702;2024-01-15T10:59:16;25.20;;;12.90;;
6902;SDS011;20232;49.408;8.702;2024-01-15T11:01:44;24.57;;;14.30;;
6902;SDS011;20232;49.408;8.702;2024-01-15T11:04:11;24.97;;;13.33;;
6902;SDS011;20232;49.408;8.702;2024-01-15T11:06:44;30.13;;;15.40;;
6902;SDS011;20232;49.408;8.702;2024-01-15T11:09:11;28.17;;;14.23;;
6902;SDS011;20232;49.408;8.702;2024-01-15T11:11:40;26.37;;;13.53;;
6902;SDS011;20232;49.408;8.702;2024-01-15T11:14:07;26.77;;;14.37;;
6902;SDS011;20232;49.408;8.702;2024-01-15T11:16:54;29.83;;;13.90;;
6902;SDS011;20232;49.408;8.702;2024-01-15T11:19:18;29.83;;;14.40;;
6902;SDS011;20232;49.408;8.702;2024-01-15T11:21:44;25.73;;;13.50;;
6902;SDS011;20232;49.408;8.702;2024-01-15T11:24:09;28.93;;;14.23;;
6902;SDS011;20232;49.408;8.702;2024-01-15T11:29:10;26.93;;;13.63;;
6902;SDS011;20232;49.408;8.702;2024-01-15T11:32:09;26.37;;;13.30;;
6902;SDS011;20232;49.408;8.702;2024-01-15T11:34:54;28.83;;;14.20;;
6902;SDS011;20232;49.408;8.702;2024-01-15T11:37:22;28.37;;;13.27;;
6902;SDS011;20232;49.408;8.702;2024-01-15T11:39:49;25.27;;;13.80;;
6902;SDS011;20232;49.408;8.702;2024-01-15T11:42:16;29.73;;;14.27;;
6902;SDS011;20232;49.408;8.702;2024-01-15T11:44:43;30.03;;;13.97;;
6902;SDS011;20232;49.408;8.702;2024-01-15T11:47:10;30.87;;;14.23;;
6902;SDS011;20232;49.408;8.702;2024-01-15T11:52:30;29.80;;;13.70;;
6902;SDS011;20232;49.408;8.702;2024-01-15T11:55:01;24.47;;;13.50;;
6902;SDS011;20232;49.408;8.702;2024-01-15T11:57:33;26.30;;;14.60;;
6902;SDS011;20232;49.408;8.702;2024-01-15T12:00:09;28.57;;;14.73;;
6902;SDS011;20232;49.408;8.702;2024-01-15T12:02:41;30.10;;;13.90;;
6902;SDS011;20232;49.408;8.702;2024-01-15T12:05:07;28.77;;;14.37;;
6902;SDS011;20232;49.408;8.702;2024-01-15T12:07:42;26.70;;;13.03;;
6902;SDS011;20232;49.408;8.702;2024-01-15T12:10:11;29.20;;;14.30;;
6902;SDS011;20232;49.408;8.702;2024-01-15T12:12:54;27.80;;;14.07;;
6902;SDS011;20232;49.408;8.702;2024-01-15T12:15:26;27.77;;;13.77;;
6902;SDS011;20232;49.408;8.702;2024-01-15T12:17:53;25.37;;;12.97;;
6902;SDS011;20232;49.408;8.702;2024-01-15T12:20:20;23.90;;;13.13;;
6902;SDS011;20232;49.408;8.702;2024-01-15T12:22:45;28.63;;;14.47;;
6902;SDS011;20232;49.408;8.702;2024-01-15T12:25:11;23.17;;;12.87;;
6902;SDS011;20232;49.408;8.702;2024-01-15T12:27:36;28.03;;;12.87;;
6902;SDS011;20232;49.408;8.702;2024-01-15T12:30:02;25.23;;;13.57;;
6902;SDS011;20232;49.408;8.702;2024-01-15T12:32:28;26.07;;;12.67;;
6902;SDS011;20232;49.408;8.702;2024-01-15T12:34:54;27.27;;;13.33;;
6902;SDS011;20232;49.408;8.702;2024-01-15T12:37:19;23.20;;;12.80;;
6902;SDS011;20232;49.408;8.702;2024-01-15T12:39:45;29.37;;;12.97;;
6902;SDS011;20232;49.408;8.702;2024-01-15T12:42:11;28.03;;;13.37;;
6902;SDS011;20232;49.408;8.702;2024-01-15T12:44:36;25.60;;;12.37;;
6902;SDS011;20232;49.408;8.702;2024-01-15T12:47:03;29.50;;;12.80;;
6902;SDS011;20232;49.408;8.702;2024-01-15T12:49:29;26.77;;;12.63;;
6902;SDS011;20232;49.408;8.702;2024-01-15T12:51:58;27.17;;;13.53;;
6902;SDS011;20232;49.408;8.702;2024-01-15T12:54:24;30.00;;;13.53;;
6902;SDS011;20232;49.408;8.702;2024-01-15T12:56:50;23.03;;;12.97;;
6902;SDS011;20232;49.408;8.702;2024-01-15T12:59:16;23.50;;;12.00;;
6902;SDS011;20232;49.408;8.702;2024-01-15T13:01:42;21.63;;;11.73;;
6902;SDS011;20232;49.408;8.702;2024-01-15T13:04:07;22.50;;;12.13;;
6902;SDS011;20232;49.408;8.702;2024-01-15T13:06:36;20.97;;;11.50;;
6902;SDS011;20232;49.408;8.702;2024-01-15T13:09:05;21.33;;;10.80;;
6902;SDS011;20232;49.408;8.702;2024-01-15T13:11:31;19.07;;;10.73;;
6902;SDS011;20232;49.408;8.702;2024-01-15T13:13:57;23.50;;;11.57;;
6902;SDS011;20232;49.408;8.702;2024-01-15T13:16:22;19.47;;;11.30;;
6902;SDS011;20232;49.408;8.702;2024-01-15T13:18:48;16.80;;;10.83;;
6902;SDS011;20232;49.408;8.702;2024-01-15T13:21:14;19.23;;;10.93;;
6902;SDS011;20232;49.408;8.702;2024-01-15T13:23:40;17.47;;;10.57;;
6902;SDS011;20232;49.408;8.702;2024-01-15T13:26:05;22.83;;;11.10;;
6902;SDS011;20232;49.408;8.702;2024-01-15T13:28:32;17.87;;;10.53;;
6902;SDS011;20232;49.408;8.702;2024-01-15T13:30:57;17.93;;;10.67;;
6902;SDS011;20232;49.408;8.702;2024-01-15T13:33:23;16.00;;;10.20;;
6902;SDS011;20232;49.408;8.702;2024-01-15T13:35:48;19.17;;;10.53;;
6902;SDS011;20232;49.408;8.702;2024-01-15T13:38:15;16.50;;;9.60;;
6902;SDS011;20232;49.408;8.702;2024-01-15T13:40:41;16.43;;;9.47;;
6902;SDS011;20232;49.408;8.702;2024-01-15T13:43:06;16.43;;;10.93;;
6902;SDS011;20232;49.408;8.702;2024-01-15T13:45:33;16.57;;;10.00;;
6902;SDS011;20232;49.408;8.702;2024-01-15T13:47:59;14.63;;;9.57;;
6902;SDS011;20232;49.408;8.702;2024-01-15T13:50:25;15.37;;;9.70;;
6902;SDS011;20232;49.408;8.702;2024-01-15T13:52:50;16.87;;;9.87;;
6902;SDS011;20232;49.408;8.702;2024-01-15T13:55:15;13.50;;;8.90;;
6902;SDS011;20232;49.408;8.702;2024-01-15T13:57:41;15.13;;;9.93;;
6902;SDS011;20232;49.408;8.702;2024-01-15T14:00:07;13.90;;;9.47;;
6902;SDS011;20232;49.408;8.702;2024-01-15T14:02:36;14.53;;;9.20;;
6902;SDS011;20232;49.408;8.702;2024-01-15T14:05:02;16.33;;;10.63;;
6902;SDS011;20232;49.408;8.702;2024-01-15T14:07:27;14.67;;;9.23;;
6902;SDS011;20232;49.408;8.702;2024-01-15T14:09:52;17.20;;;9.67;;
6902;SDS011;20232;49.408;8.702;2024-01-15T14:12:18;15.53;;;9.50;;
6902;SDS011;20232;49.408;8.702;2024-01-15T14:14:43;15.40;;;9.90;;
6902;SDS011;20232;49.408;8.702;2024-01-15T14:17:08;16.27;;;9.50;;
6902;SDS011;20232;49.408;8.702;2024-01-15T14:19:34;14.83;;;9.17;;
6902;SDS011;20232;49.408;8.702;2024-01-15T14:21:59;14.43;;;9.23;;
6902;SDS011;20232;49.408;8.702;2024-01-15T14:24:25;13.40;;;9.13;;
6902;SDS011;20232;49.408;8.702;2024-01-15T14:26:50;15.97;;;8.60;;
6902;SDS011;20232;49.408;8.702;2024-01-15T14:29:15;14.83;;;8.67;;
6902;SDS011;20232;49.408;8.702;2024-01-15T14:31:41;14.83;;;8.00;;
6902;SDS011;20232;49.408;8.702;2024-01-15T14:34:06;14.30;;;8.27;;
6902;SDS011;20232;49.408;8.702;2024-01-15T14:36:32;15.23;;;8.20;;
6902;SDS011;20232;49.408;8.702;2024-01-15T14:38:58;10.57;;;7.60;;
6902;SDS011;20232;49.408;8.702;2024-01-15T14:41:23;12.03;;;7.90;;
6902;SDS011;20232;49.408;8.702;2024-01-15T14:43:49;11.93;;;7.60;;
6902;SDS011;20232;49.408;8.702;2024-01-15T14:46:14;9.53;;;7.30;;
6902;SDS011;20232;49.408;8.702;2024-01-15T14:48:39;11.27;;;7.87;;
6902;SDS011;20232;49.408;8.702;2024-01-15T14:51:05;11.03;;;7.70;;
6902;SDS011;20232;49.408;8.702;2024-01-15T14:53:32;12.03;;;7.67;;
6902;SDS011;20232;49.408;8.702;2024-01-15T14:55:57;12.07;;;7.83;;
6902;SDS011;20232;49.408;8.702;2024-01-15T14:58:23;12.50;;;7.40;;
6902;SDS011;20232;49.408;8.702;2024-01-15T15:00:48;11.53;;;7.63;;
6902;SDS011;20232;49.408;8.702;2024-01-15T15:03:14;9.57;;;6.80;;
6902;SDS011;20232;49.408;8.702;2024-01-15T15:05:40;11.03;;;7.07;;
6902;SDS011;20232;49.408;8.702;2024-01-15T15:08:06;10.53;;;6.87;;
6902;SDS011;20232;49.408;8.702;2024-01-15T15:10:37;10.77;;;7.13;;
6902;SDS011;20232;49.408;8.702;2024-01-15T15:13:03;10.90;;;6.63;;
6902;SDS011;20232;49.408;8.702;2024-01-15T15:15:28;9.47;;;6.77;;
6902;SDS011;20232;49.408;8.702;2024-01-15T15:17:54;10.63;;;7.13;;
6902;SDS011;20232;49.408;8.702;2024-01-15T15:20:19;9.60;;;6.27;;
6902;SDS011;20232;49.408;8.702;2024-01-15T15:22:45;9.00;;;6.47;;
6902;SDS011;20232;49.408;8.702;2024-01-15T15:25:10;10.00;;;6.43;;
6902;SDS011;20232;49.408;8.702;2024-01-15T15:27:37;10.43;;;6.77;;
6902;SDS011;20232;49.408;8.702;2024-01-15T15:30:03;9.43;;;6.83;;
6902;SDS011;20232;49.408;8.702;2024-01-15T15:32:28;9.10;;;6.43;;
6902;SDS011;20232;49.408;8.702;2024-01-15T15:34:54;9.50;;;6.97;;
6902;SDS011;20232;49.408;8.702;2024-01-15T15:37:19;11.53;;;7.30;;
6902;SDS011;20232;49.408;8.702;2024-01-15T15:39:45;10.67;;;6.97;;
6902;SDS011;20232;49.408;8.702;2024-01-15T15:42:10;8.53;;;7.20;;
6902;SDS011;20232;49.408;8.702;2024-01-15T15:44:35;13.27;;;8.20;;
6902;SDS011;20232;49.408;8.702;2024-01-15T15:47:02;10.47;;;6.90;;
6902;SDS011;20232;49.408;8.702;2024-01-15T15:49:28;8.80;;;7.03;;
6902;SDS011;20232;49.408;8.702;2024-01-15T15:51:53;8.60;;;6.40;;
6902;SDS011;20232;49.408;8.702;2024-01-15T15:54:19;9.40;;;6.97;;
6902;SDS011;20232;49.408;8.702;2024-01-15T15:56:44;10.03;;;7.03;;
6902;SDS011;20232;49.408;8.702;2024-01-15T15:59:14;10.23;;;7.37;;
6902;SDS011;20232;49.408;8.702;2024-01-15T16:01:41;10.67;;;6.87;;
6902;SDS011;20232;49.408;8.702;2024-01-15T16:04:06;10.70;;;7.53;;
6902;SDS011;20232;49.408;8.702;2024-01-15T16:06:32;7.20;;;6.03;;
6902;SDS011;20232;49.408;8.702;2024-01-15T16:08:57;10.30;;;6.80;;
6902;SDS011;20232;49.408;8.702;2024-01-15T16:11:23;11.63;;;7.03;;
6902;SDS011;20232;49.408;8.702;2024-01-15T16:13:48;9.63;;;7.33;;
6902;SDS011;20232;49.408;8.702;2024-01-15T16:16:15;8.73;;;6.33;;
6902;SDS011;20232;49.408;8.702;2024-01-15T16:18:40;10.73;;;6.73;;
6902;SDS011;20232;49.408;8.702;2024-01-15T16:21:06;11.20;;;6.90;;
6902;SDS011;20232;49.408;8.702;2024-01-15T16:23:31;9.53;;;6.13;;
6902;SDS011;20232;49.408;8.702;2024-01-15T16:25:57;9.17;;;6.27;;
6902;SDS011;20232;49.408;8.702;2024-01-15T16:28:22;10.07;;;6.00;;
6902;SDS011;20232;49.408;8.702;2024-01-15T16:30:47;9.00;;;5.83;;
6902;SDS011;20232;49.408;8.702;2024-01-15T16:33:12;8.43;;;6.53;;
6902;SDS011;20232;49.408;8.702;2024-01-15T16:35:38;9.23;;;5.97;;
6902;SDS011;20232;49.408;8.702;2024-01-15T16:38:04;7.70;;;5.47;;
6902;SDS011;20232;49.408;8.702;2024-01-15T16:40:30;8.57;;;5.80;;
6902;SDS011;20232;49.408;8.702;2024-01-15T16:42:55;9.27;;;6.27;;
6902;SDS011;20232;49.408;8.702;2024-01-15T16:45:21;7.80;;;5.73;;
6902;SDS011;20232;49.408;8.702;2024-01-15T16:47:46;7.97;;;5.77;;
6902;SDS011;20232;49.408;8.702;2024-01-15T16:50:12;12.00;;;6.00;;
6902;SDS011;20232;49.408;8.702;2024-01-15T16:52:37;7.77;;;5.60;;
6902;SDS011;20232;49.408;8.702;2024-01-15T16:55:03;7.40;;;6.07;;
6902;SDS011;20232;49.408;8.702;2024-01-15T16:57:28;10.03;;;6.23;;
6902;SDS011;20232;49.408;8.702;2024-01-15T16:59:53;9.93;;;6.23;;
6902;SDS011;20232;49.408;8.702;2024-01-15T17:02:19;8.53;;;6.33;;
6902;SDS011;20232;49.408;8.702;2024-01-15T17:04:44;10.77;;;6.50;;
6902;SDS011;20232;49.408;8.702;2024-01-15T17:07:09;11.60;;;6.47;;
6902;SDS011;20232;49.408;8.702;2024-01-15T17:09:35;8.67;;;6.50;;
6902;SDS011;20232;49.408;8.702;2024-01-15T17:12:01;10.23;;;6.57;;
6902;SDS011;20232;49.408;8.702;2024-01-15T17:14:28;11.03;;;6.53;;
6902;SDS011;20232;49.408;8.702;2024-01-15T17:16:53;10.87;;;6.47;;
6902;SDS011;20232;49.408;8.702;2024-01-15T17:19:20;9.50;;;6.53;;
6902;SDS011;20232;49.408;8.702;2024-01-15T17:21:45;11.10;;;6.97;;
6902;SDS011;20232;49.408;8.702;2024-01-15T17:24:11;10.20;;;7.30;;
6902;SDS011;20232;49.408;8.702;2024-01-15T17:26:36;9.70;;;6.90;;
6902;SDS011;20232;49.408;8.702;2024-01-15T17:29:02;11.13;;;6.50;;
6902;SDS011;20232;49.408;8.702;2024-01-15T17:31:29;11.33;;;7.53;;
6902;SDS011;20232;49.408;8.702;2024-01-15T17:33:54;8.33;;;6.80;;
6902;SDS011;20232;49.408;8.702;2024-01-15T17:36:20;12.07;;;7.50;;
6902;SDS011;20232;49.408;8.702;2024-01-15T17:38:45;10.33;;;7.43;;
6902;SDS011;20232;49.408;8.702;2024-01-15T17:41:10;11.13;;;6.93;;
6902;SDS011;20232;49.408;8.702;2024-01-15T17:43:37;12.27;;;7.03;;
6902;SDS011;20232;49.408;8.702;2024-01-15T17:46:03;13.07;;;7.90;;
6902;SDS011;20232;49.408;8.702;2024-01-15T17:48:29;10.60;;;6.93;;
6902;SDS011;20232;49.408;8.702;2024-01-15T17:50:56;10.67;;;7.07;;
6902;SDS011;20232;49.408;8.702;2024-01-15T17:53:22;9.10;;;6.37;;
6902;SDS011;20232;49.408;8.702;2024-01-15T17:55:48;8.90;;;6.83;;
6902;SDS011;20232;49.408;8.702;2024-01-15T17:58:13;8.17;;;6.57;;
6902;SDS011;20232;49.408;8.702;2024-01-15T18:00:39;8.90;;;6.70;;
6902;SDS011;20232;49.408;8.702;2024-01-15T18:03:04;10.90;;;6.70;;
6902;SDS011;20232;49.408;8.702;2024-01-15T18:05:30;7.60;;;5.90;;
6902;SDS011;20232;49.408;8.702;2024-01-15T18:07:55;9.77;;;6.30;;
6902;SDS011;20232;49.408;8.702;2024-01-15T18:10:21;9.10;;;6.97;;
6902;SDS011;20232;49.408;8.702;2024-01-15T18:12:46;10.07;;;6.60;;
6902;SDS011;20232;49.408;8.702;2024-01-15T18:15:12;8.87;;;6.60;;
6902;SDS011;20232;49.408;8.702;2024-01-15T18:17:37;9.87;;;6.67;;
6902;SDS011;20232;49.408;8.702;2024-01-15T18:20:03;9.30;;;6.63;;
6902;SDS011;20232;49.408;8.702;2024-01-15T18:22:29;9.83;;;7.30;;
6902;SDS011;20232;49.408;8.702;2024-01-15T18:24:54;10.10;;;6.80;;
6902;SDS011;20232;49.408;8.702;2024-01-15T18:27:21;11.87;;;6.70;;
6902;SDS011;20232;49.408;8.702;2024-01-15T18:29:46;10.37;;;6.67;;
6902;SDS011;20232;49.408;8.702;2024-01-15T18:32:12;10.13;;;6.90;;
6902;SDS011;20232;49.408;8.702;2024-01-15T18:34:37;13.27;;;7.47;;
6902;SDS011;20232;49.408;8.702;2024-01-15T18:37:02;11.67;;;6.90;;
6902;SDS011;20232;49.408;8.702;2024-01-15T18:39:28;10.37;;;6.37;;
6902;SDS011;20232;49.408;8.702;2024-01-15T18:41:53;10.30;;;7.30;;
6902;SDS011;20232;49.408;8.702;2024-01-15T18:44:19;11.10;;;6.43;;
6902;SDS011;20232;49.408;8.702;2024-01-15T18:46:44;8.73;;;6.50;;
6902;SDS011;20232;49.408;8.702;2024-01-15T18:49:11;10.20;;;7.57;;
6902;SDS011;20232;49.408;8.702;2024-01-15T18:51:36;10.97;;;7.37;;
6902;SDS011;20232;49.408;8.702;2024-01-15T18:54:02;15.07;;;7.00;;
6902;SDS011;20232;49.408;8.702;2024-01-15T18:56:27;9.37;;;6.40;;
6902;SDS011;20232;49.408;8.702;2024-01-15T18:58:52;10.93;;;7.33;;
6902;SDS011;20232;49.408;8.702;2024-01-15T19:01:28;12.83;;;7.07;;
6902;SDS011;20232;49.408;8.702;2024-01-15T19:03:54;10.80;;;7.07;;
6902;SDS011;20232;49.408;8.702;2024-01-15T19:06:20;9.97;;;6.90;;
6902;SDS011;20232;49.408;8.702;2024-01-15T19:08:46;8.73;;;6.73;;
6902;SDS011;20232;49.408;8.702;2024-01-15T19:11:11;10.10;;;6.73;;
6902;SDS011;20232;49.408;8.702;2024-01-15T19:13:37;8.77;;;6.70;;
6902;SDS011;20232;49.408;8.702;2024-01-15T19:16:02;10.27;;;6.33;;
6902;SDS011;20232;49.408;8.702;2024-01-15T19:18:29;7.43;;;6.30;;
6902;SDS011;20232;49.408;8.702;2024-01-15T19:20:54;8.43;;;6.47;;
6902;SDS011;20232;49.408;8.702;2024-01-15T19:23:20;8.57;;;6.70;;
6902;SDS011;20232;49.408;8.702;2024-01-15T19:25:45;8.60;;;6.30;;
6902;SDS011;20232;49.408;8.702;2024-01-15T19:28:11;8.83;;;7.13;;
6902;SDS011;20232;49.408;8.702;2024-01-15T19:30:38;11.93;;;6.93;;
6902;SDS011;20232;49.408;8.702;2024-01-15T19:33:05;9.13;;;7.37;;
6902;SDS011;20232;49.408;8.702;2024-01-15T19:35:30;10.90;;;6.20;;
6902;SDS011;20232;49.408;8.702;2024-01-15T19:37:55;9.03;;;6.37;;
6902;SDS011;20232;49.408;8.702;2024-01-15T19:40:21;7.97;;;6.60;;
6902;SDS011;20232;49.408;8.702;2024-01-15T19:42:46;9.17;;;6.50;;